sensor_id;sensor_type;location;lat;lon;timestamp;temperature;humidity
25302;DHT22;13243;50.888;4.724;2022-11-18T00:05:01;9.60;99.90
25302;DHT22;13243;50.888;4.724;2022-11-18T00:10:03;9.60;99.90
25302;DHT22;13243;50.888;4.724;2022-11-18T00:15:05;9.50;99.90
25302;DHT22;13243;50.888;4.724;2022-11-18T00:20:08;9.50;99.90
25302;DHT22;13243;50.888;4.724;2022-11-18T00:25:09;9.50;99.90
25302;DHT22;13243;50.888;4.724;2022-11-18T00:30:11;9.50;99.90
25302;DHT22;13243;50.888;4.724;2022-11-18T00:35:13;9.60;99.90
25302;DHT22;13243;50.888;4.724;2022-11-18T00:40:16;9.60;99.90
25302;DHT22;13243;50.888;4.724;2022-11-18T00:45:19;9.70;99.90
25302;DHT22;13243;50.888;4.724;2022-11-18T00:50:21;9.70;99.90
25302;DHT22;13243;50.888;4.724;2022-11-18T00:55:22;9.70;99.90
25302;DHT22;13243;50.888;4.724;2022-11-18T01:00:24;9.80;99.90
25302;DHT22;13243;50.888;4.724;2022-11-18T01:05:26;9.70;99.90
25302;DHT22;13243;50.888;4.724;2022-11-18T01:10:28;9.80;99.90
25302;DHT22;13243;50.888;4.724;2022-11-18T01:15:30;9.70;99.90
25302;DHT22;13243;50.888;4.724;2022-11-18T01:20:32;9.80;99.90
25302;DHT22;13243;50.888;4.724;2022-11-18T01:25:36;9.70;99.90
25302;DHT22;13243;50.888;4.724;2022-11-18T01:30:39;9.70;99.90
25302;DHT22;13243;50.888;4.724;2022-11-18T01:35:43;9.70;99.90
25302;DHT22;13243;50.888;4.724;2022-11-18T01:40:45;9.70;99.90
25302;DHT22;13243;50.888;4.724;2022-11-18T01:45:48;9.70;99.90
25302;DHT22;13243;50.888;4.724;2022-11-18T01:50:54;9.60;99.90
25302;DHT22;13243;50.888;4.724;2022-11-18T01:56:02;9.60;99.90
25302;DHT22;13243;50.888;4.724;2022-11-18T02:01:06;9.60;99.90
25302;DHT22;13243;50.888;4.724;2022-11-18T02:06:09;9.60;99.90
25302;DHT22;13243;50.888;4.724;2022-11-18T02:11:13;9.60;99.90
25302;DHT22;13243;50.888;4.724;2022-11-18T02:32:57;9.30;99.90
25302;DHT22;13243;50.888;4.724;2022-11-18T02:38:41;9.30;99.90
25302;DHT22;13243;50.888;4.724;2022-11-18T02:43:50;9.20;99.90
25302;DHT22;13243;50.888;4.724;2022-11-18T02:48:54;9.20;99.90
25302;DHT22;13243;50.888;4.724;2022-11-18T02:54:00;9.10;99.90
25302;DHT22;13243;50.888;4.724;2022-11-18T02:59:04;9.10;99.90
25302;DHT22;13243;50.888;4.724;2022-11-18T03:04:06;9.10;99.90
25302;DHT22;13243;50.888;4.724;2022-11-18T03:14:45;9.00;99.90
25302;DHT22;13243;50.888;4.724;2022-11-18T03:25:27;8.90;99.90
25302;DHT22;13243;50.888;4.724;2022-11-18T03:30:32;8.90;99.90
25302;DHT22;13243;50.888;4.724;2022-11-18T03:35:38;8.80;99.90
25302;DHT22;13243;50.888;4.724;2022-11-18T03:40:48;8.70;99.90
25302;DHT22;13243;50.888;4.724;2022-11-18T03:45:55;8.70;99.90
25302;DHT22;13243;50.888;4.724;2022-11-18T03:51:06;8.70;99.90
25302;DHT22;13243;50.888;4.724;2022-11-18T03:56:13;8.70;99.90
25302;DHT22;13243;50.888;4.724;2022-11-18T04:07:15;8.50;99.90
25302;DHT22;13243;50.888;4.724;2022-11-18T04:12:20;8.50;99.90
25302;DHT22;13243;50.888;4.724;2022-11-18T04:17:26;8.50;99.90
25302;DHT22;13243;50.888;4.724;2022-11-18T04:22:28;8.50;99.90
25302;DHT22;13243;50.888;4.724;2022-11-18T04:27:30;8.40;99.90
25302;DHT22;13243;50.888;4.724;2022-11-18T04:32:32;8.50;99.90
25302;DHT22;13243;50.888;4.724;2022-11-18T04:37:34;8.40;99.90
25302;DHT22;13243;50.888;4.724;2022-11-18T04:42:36;8.40;99.90
25302;DHT22;13243;50.888;4.724;2022-11-18T04:47:38;8.40;99.90
25302;DHT22;13243;50.888;4.724;2022-11-18T04:52:40;8.40;99.90
25302;DHT22;13243;50.888;4.724;2022-11-18T04:57:42;8.30;99.90
25302;DHT22;13243;50.888;4.724;2022-11-18T05:02:43;8.20;99.90
25302;DHT22;13243;50.888;4.724;2022-11-18T05:07:45;8.20;99.90
25302;DHT22;13243;50.888;4.724;2022-11-18T05:12:47;8.20;99.90
25302;DHT22;13243;50.888;4.724;2022-11-18T05:17:49;8.20;99.90
25302;DHT22;13243;50.888;4.724;2022-11-18T05:22:51;8.20;99.90
25302;DHT22;13243;50.888;4.724;2022-11-18T05:27:53;8.10;99.90
25302;DHT22;13243;50.888;4.724;2022-11-18T05:32:55;8.10;99.90
25302;DHT22;13243;50.888;4.724;2022-11-18T05:37:56;8.10;99.90
25302;DHT22;13243;50.888;4.724;2022-11-18T05:42:58;8.20;99.90
25302;DHT22;13243;50.888;4.724;2022-11-18T05:48:12;8.10;99.90
25302;DHT22;13243;50.888;4.724;2022-11-18T05:53:15;8.10;99.90
25302;DHT22;13243;50.888;4.724;2022-11-18T05:58:17;8.00;99.90
25302;DHT22;13243;50.888;4.724;2022-11-18T06:03:25;8.00;99.90
25302;DHT22;13243;50.888;4.724;2022-11-18T06:08:39;8.00;99.90
25302;DHT22;13243;50.888;4.724;2022-11-18T06:13:49;8.00;99.90
25302;DHT22;13243;50.888;4.724;2022-11-18T06:18:51;8.00;99.90
25302;DHT22;13243;50.888;4.724;2022-11-18T06:23:54;7.90;99.90
25302;DHT22;13243;50.888;4.724;2022-11-18T06:28:56;7.90;99.90
25302;DHT22;13243;50.888;4.724;2022-11-18T06:33:58;7.90;99.90
25302;DHT22;13243;50.888;4.724;2022-11-18T06:39:04;7.90;99.90
25302;DHT22;13243;50.888;4.724;2022-11-18T06:44:06;7.90;99.90
25302;DHT22;13243;50.888;4.724;2022-11-18T06:49:08;7.80;99.90
25302;DHT22;13243;50.888;4.724;2022-11-18T06:54:10;7.80;99.90
25302;DHT22;13243;50.888;4.724;2022-11-18T06:59:12;7.70;99.90
25302;DHT22;13243;50.888;4.724;2022-11-18T07:04:14;7.70;99.90
25302;DHT22;13243;50.888;4.724;2022-11-18T07:09:16;7.80;99.90
25302;DHT22;13243;50.888;4.724;2022-11-18T07:14:18;7.80;99.90
25302;DHT22;13243;50.888;4.724;2022-11-18T07:19:20;7.80;99.90
25302;DHT22;13243;50.888;4.724;2022-11-18T07:24:22;7.90;99.90
25302;DHT22;13243;50.888;4.724;2022-11-18T07:29:24;7.90;99.90
25302;DHT22;13243;50.888;4.724;2022-11-18T07:34:25;8.00;99.90
25302;DHT22;13243;50.888;4.724;2022-11-18T07:39:27;8.00;99.90
25302;DHT22;13243;50.888;4.724;2022-11-18T07:44:29;8.20;99.90
25302;DHT22;13243;50.888;4.724;2022-11-18T07:49:31;8.30;99.90
25302;DHT22;13243;50.888;4.724;2022-11-18T07:54:33;8.40;99.90
25302;DHT22;13243;50.888;4.724;2022-11-18T07:59:35;8.50;99.90
25302;DHT22;13243;50.888;4.724;2022-11-18T08:04:37;8.60;99.90
25302;DHT22;13243;50.888;4.724;2022-11-18T08:09:39;8.60;99.90
25302;DHT22;13243;50.888;4.724;2022-11-18T08:14:41;8.70;99.90
25302;DHT22;13243;50.888;4.724;2022-11-18T08:19:43;8.70;99.90
25302;DHT22;13243;50.888;4.724;2022-11-18T08:24:45;8.80;99.90
25302;DHT22;13243;50.888;4.724;2022-11-18T08:29:47;8.80;99.90
25302;DHT22;13243;50.888;4.724;2022-11-18T08:34:49;8.80;99.90
25302;DHT22;13243;50.888;4.724;2022-11-18T08:39:51;8.90;99.90
25302;DHT22;13243;50.888;4.724;2022-11-18T08:44:53;9.00;99.90
25302;DHT22;13243;50.888;4.724;2022-11-18T08:49:55;9.00;99.90
25302;DHT22;13243;50.888;4.724;2022-11-18T08:54:56;9.10;99.90
25302;DHT22;13243;50.888;4.724;2022-11-18T08:59:58;9.10;99.90
25302;DHT22;13243;50.888;4.724;2022-11-18T09:05:00;9.10;99.90
25302;DHT22;13243;50.888;4.724;2022-11-18T09:10:02;9.20;99.90
25302;DHT22;13243;50.888;4.724;2022-11-18T09:15:05;9.20;99.90
25302;DHT22;13243;50.888;4.724;2022-11-18T09:20:27;9.30;99.90
25302;DHT22;13243;50.888;4.724;2022-11-18T09:25:29;9.30;99.90
25302;DHT22;13243;50.888;4.724;2022-11-18T09:30:30;9.40;99.90
25302;DHT22;13243;50.888;4.724;2022-11-18T09:35:32;9.40;99.90
25302;DHT22;13243;50.888;4.724;2022-11-18T09:51:38;9.60;99.90
25302;DHT22;13243;50.888;4.724;2022-11-18T09:56:40;9.60;99.90
25302;DHT22;13243;50.888;4.724;2022-11-18T10:01:43;9.70;99.90
25302;DHT22;13243;50.888;4.724;2022-11-18T10:06:47;9.80;99.90
25302;DHT22;13243;50.888;4.724;2022-11-18T10:27:45;10.00;99.90
25302;DHT22;13243;50.888;4.724;2022-11-18T10:33:02;10.10;99.90
25302;DHT22;13243;50.888;4.724;2022-11-18T10:38:19;10.10;99.90
25302;DHT22;13243;50.888;4.724;2022-11-18T11:04:46;10.40;99.90
25302;DHT22;13243;50.888;4.724;2022-11-18T11:10:15;10.50;99.90
25302;DHT22;13243;50.888;4.724;2022-11-18T11:15:35;10.50;99.90
25302;DHT22;13243;50.888;4.724;2022-11-18T11:20:38;10.50;99.90
25302;DHT22;13243;50.888;4.724;2022-11-18T11:25:47;10.60;99.90
25302;DHT22;13243;50.888;4.724;2022-11-18T11:31:38;10.60;99.90
25302;DHT22;13243;50.888;4.724;2022-11-18T11:48:29;10.60;99.90
25302;DHT22;13243;50.888;4.724;2022-11-18T12:03:47;10.60;99.90
25302;DHT22;13243;50.888;4.724;2022-11-18T12:14:45;10.70;99.90
25302;DHT22;13243;50.888;4.724;2022-11-18T12:19:53;10.70;99.90
25302;DHT22;13243;50.888;4.724;2022-11-18T12:24:55;10.70;99.90
25302;DHT22;13243;50.888;4.724;2022-11-18T12:29:57;10.70;99.90
25302;DHT22;13243;50.888;4.724;2022-11-18T12:35:10;10.80;99.90
25302;DHT22;13243;50.888;4.724;2022-11-18T12:40:34;10.70;99.90
25302;DHT22;13243;50.888;4.724;2022-11-18T12:50:52;10.80;99.90
25302;DHT22;13243;50.888;4.724;2022-11-18T12:55:55;10.80;99.90
25302;DHT22;13243;50.888;4.724;2022-11-18T13:01:06;10.80;99.90
25302;DHT22;13243;50.888;4.724;2022-11-18T13:06:31;10.80;99.90
25302;DHT22;13243;50.888;4.724;2022-11-18T13:11:46;10.70;99.90
25302;DHT22;13243;50.888;4.724;2022-11-18T13:16:50;10.70;99.90
25302;DHT22;13243;50.888;4.724;2022-11-18T13:22:16;10.70;99.90
25302;DHT22;13243;50.888;4.724;2022-11-18T13:27:51;10.70;99.90
25302;DHT22;13243;50.888;4.724;2022-11-18T13:32:57;10.70;99.90
25302;DHT22;13243;50.888;4.724;2022-11-18T13:38:00;10.70;99.90
25302;DHT22;13243;50.888;4.724;2022-11-18T13:43:02;10.60;99.90
25302;DHT22;13243;50.888;4.724;2022-11-18T13:48:11;10.60;99.90
25302;DHT22;13243;50.888;4.724;2022-11-18T13:53:32;10.60;99.90
25302;DHT22;13243;50.888;4.724;2022-11-18T14:04:06;10.60;99.90
25302;DHT22;13243;50.888;4.724;2022-11-18T14:14:27;10.50;99.90
25302;DHT22;13243;50.888;4.724;2022-11-18T14:19:31;10.50;99.90
25302;DHT22;13243;50.888;4.724;2022-11-18T14:24:33;10.40;99.90
25302;DHT22;13243;50.888;4.724;2022-11-18T14:29:35;10.40;99.90
25302;DHT22;13243;50.888;4.724;2022-11-18T14:34:36;10.30;99.90
25302;DHT22;13243;50.888;4.724;2022-11-18T14:39:39;10.30;99.90
25302;DHT22;13243;50.888;4.724;2022-11-18T14:44:41;10.30;99.90
25302;DHT22;13243;50.888;4.724;2022-11-18T14:49:43;10.30;99.90
25302;DHT22;13243;50.888;4.724;2022-11-18T14:54:44;10.20;99.90
25302;DHT22;13243;50.888;4.724;2022-11-18T14:59:46;10.20;99.90
25302;DHT22;13243;50.888;4.724;2022-11-18T15:04:48;10.30;99.90
25302;DHT22;13243;50.888;4.724;2022-11-18T15:09:51;10.20;99.90
25302;DHT22;13243;50.888;4.724;2022-11-18T15:14:53;10.20;99.90
25302;DHT22;13243;50.888;4.724;2022-11-18T15:19:54;10.30;99.90
25302;DHT22;13243;50.888;4.724;2022-11-18T15:24:56;10.30;99.90
25302;DHT22;13243;50.888;4.724;2022-11-18T15:29:58;10.30;99.90
25302;DHT22;13243;50.888;4.724;2022-11-18T15:35:02;10.30;99.90
25302;DHT22;13243;50.888;4.724;2022-11-18T15:40:05;10.20;99.90
25302;DHT22;13243;50.888;4.724;2022-11-18T15:45:07;10.20;99.90
25302;DHT22;13243;50.888;4.724;2022-11-18T15:50:09;10.20;99.90
25302;DHT22;13243;50.888;4.724;2022-11-18T15:55:10;10.20;99.90
25302;DHT22;13243;50.888;4.724;2022-11-18T16:00:13;10.20;99.90
25302;DHT22;13243;50.888;4.724;2022-11-18T16:05:15;10.20;99.90
25302;DHT22;13243;50.888;4.724;2022-11-18T16:10:16;10.20;99.90
25302;DHT22;13243;50.888;4.724;2022-11-18T16:15:37;10.20;99.90
25302;DHT22;13243;50.888;4.724;2022-11-18T16:20:44;10.10;99.90
25302;DHT22;13243;50.888;4.724;2022-11-18T16:25:46;10.10;99.90
25302;DHT22;13243;50.888;4.724;2022-11-18T16:30:49;10.00;99.90
25302;DHT22;13243;50.888;4.724;2022-11-18T16:36:09;9.90;99.90
25302;DHT22;13243;50.888;4.724;2022-11-18T16:41:12;9.90;99.90
25302;DHT22;13243;50.888;4.724;2022-11-18T16:46:34;10.00;99.90
25302;DHT22;13243;50.888;4.724;2022-11-18T16:51:36;10.00;99.90
25302;DHT22;13243;50.888;4.724;2022-11-18T16:56:39;9.80;99.90
25302;DHT22;13243;50.888;4.724;2022-11-18T17:01:41;9.90;99.90
25302;DHT22;13243;50.888;4.724;2022-11-18T17:06:43;9.90;99.90
25302;DHT22;13243;50.888;4.724;2022-11-18T17:11:47;9.90;99.90
25302;DHT22;13243;50.888;4.724;2022-11-18T17:16:50;9.80;99.90
25302;DHT22;13243;50.888;4.724;2022-11-18T17:21:53;9.90;99.90
25302;DHT22;13243;50.888;4.724;2022-11-18T17:26:55;9.90;99.90
25302;DHT22;13243;50.888;4.724;2022-11-18T17:31:57;9.90;99.90
25302;DHT22;13243;50.888;4.724;2022-11-18T17:36:58;9.90;99.90
25302;DHT22;13243;50.888;4.724;2022-11-18T17:42:07;9.70;99.90
25302;DHT22;13243;50.888;4.724;2022-11-18T17:47:14;9.60;99.90
25302;DHT22;13243;50.888;4.724;2022-11-18T17:52:16;9.50;99.90
25302;DHT22;13243;50.888;4.724;2022-11-18T17:57:19;9.50;99.90
25302;DHT22;13243;50.888;4.724;2022-11-18T18:02:21;9.50;99.90
25302;DHT22;13243;50.888;4.724;2022-11-18T18:07:23;9.50;99.90
25302;DHT22;13243;50.888;4.724;2022-11-18T18:12:25;9.50;99.90
25302;DHT22;13243;50.888;4.724;2022-11-18T18:17:46;9.50;99.90
25302;DHT22;13243;50.888;4.724;2022-11-18T18:22:48;9.50;99.90
25302;DHT22;13243;50.888;4.724;2022-11-18T18:27:50;9.60;99.90
25302;DHT22;13243;50.888;4.724;2022-11-18T18:32:52;9.50;99.90
25302;DHT22;13243;50.888;4.724;2022-11-18T18:37:54;9.50;99.90
25302;DHT22;13243;50.888;4.724;2022-11-18T18:42:56;9.40;99.90
25302;DHT22;13243;50.888;4.724;2022-11-18T18:48:01;9.50;99.90
25302;DHT22;13243;50.888;4.724;2022-11-18T18:53:04;9.40;99.90
25302;DHT22;13243;50.888;4.724;2022-11-18T18:58:06;9.50;99.90
25302;DHT22;13243;50.888;4.724;2022-11-18T19:03:08;9.40;99.90
25302;DHT22;13243;50.888;4.724;2022-11-18T19:08:09;9.50;99.90
25302;DHT22;13243;50.888;4.724;2022-11-18T19:13:11;9.40;99.90
25302;DHT22;13243;50.888;4.724;2022-11-18T19:18:13;9.40;99.90
25302;DHT22;13243;50.888;4.724;2022-11-18T19:23:15;9.50;99.90
25302;DHT22;13243;50.888;4.724;2022-11-18T19:28:18;9.40;99.90
25302;DHT22;13243;50.888;4.724;2022-11-18T19:33:21;9.50;99.90
25302;DHT22;13243;50.888;4.724;2022-11-18T19:38:23;9.40;99.90
25302;DHT22;13243;50.888;4.724;2022-11-18T19:43:26;9.40;99.90
25302;DHT22;13243;50.888;4.724;2022-11-18T19:48:28;9.50;99.90
25302;DHT22;13243;50.888;4.724;2022-11-18T19:53:30;9.50;99.90
25302;DHT22;13243;50.888;4.724;2022-11-18T19:58:34;9.40;99.90
25302;DHT22;13243;50.888;4.724;2022-11-18T20:03:36;9.40;99.90
25302;DHT22;13243;50.888;4.724;2022-11-18T20:08:39;9.40;99.90
25302;DHT22;13243;50.888;4.724;2022-11-18T20:13:42;9.40;99.90
25302;DHT22;13243;50.888;4.724;2022-11-18T20:18:45;9.40;99.90
25302;DHT22;13243;50.888;4.724;2022-11-18T20:23:57;9.30;99.90
25302;DHT22;13243;50.888;4.724;2022-11-18T20:28:59;9.30;99.90
25302;DHT22;13243;50.888;4.724;2022-11-18T20:34:02;9.40;99.90
25302;DHT22;13243;50.888;4.724;2022-11-18T20:39:06;9.50;99.90
25302;DHT22;13243;50.888;4.724;2022-11-18T20:44:08;9.40;99.90
25302;DHT22;13243;50.888;4.724;2022-11-18T20:49:10;9.50;99.90
25302;DHT22;13243;50.888;4.724;2022-11-18T20:54:12;9.50;99.90
25302;DHT22;13243;50.888;4.724;2022-11-18T20:59:14;9.40;99.90
25302;DHT22;13243;50.888;4.724;2022-11-18T21:04:16;9.40;99.90
25302;DHT22;13243;50.888;4.724;2022-11-18T21:09:18;9.40;99.90
25302;DHT22;13243;50.888;4.724;2022-11-18T21:14:21;9.40;99.90
25302;DHT22;13243;50.888;4.724;2022-11-18T21:19:26;9.40;99.90
25302;DHT22;13243;50.888;4.724;2022-11-18T21:24:30;9.40;99.90
25302;DHT22;13243;50.888;4.724;2022-11-18T21:29:32;9.40;99.90
25302;DHT22;13243;50.888;4.724;2022-11-18T21:34:34;9.40;99.90
25302;DHT22;13243;50.888;4.724;2022-11-18T21:39:36;9.30;99.90
25302;DHT22;13243;50.888;4.724;2022-11-18T21:44:38;9.40;99.90
25302;DHT22;13243;50.888;4.724;2022-11-18T21:49:40;9.40;99.90
25302;DHT22;13243;50.888;4.724;2022-11-18T21:54:41;9.30;99.90
25302;DHT22;13243;50.888;4.724;2022-11-18T21:59:43;9.40;99.90
25302;DHT22;13243;50.888;4.724;2022-11-18T22:04:45;9.30;99.90
25302;DHT22;13243;50.888;4.724;2022-11-18T22:09:53;9.30;99.90
25302;DHT22;13243;50.888;4.724;2022-11-18T22:14:55;9.40;99.90
25302;DHT22;13243;50.888;4.724;2022-11-18T22:19:57;9.30;99.90
25302;DHT22;13243;50.888;4.724;2022-11-18T22:24:59;9.30;99.90
25302;DHT22;13243;50.888;4.724;2022-11-18T22:30:01;9.30;99.90
25302;DHT22;13243;50.888;4.724;2022-11-18T22:35:03;9.30;99.90
25302;DHT22;13243;50.888;4.724;2022-11-18T22:40:05;9.30;99.90
25302;DHT22;13243;50.888;4.724;2022-11-18T22:45:07;9.30;99.90
25302;DHT22;13243;50.888;4.724;2022-11-18T22:50:09;9.30;99.90
25302;DHT22;13243;50.888;4.724;2022-11-18T22:55:11;9.20;99.90
25302;DHT22;13243;50.888;4.724;2022-11-18T23:00:14;9.10;99.90
25302;DHT22;13243;50.888;4.724;2022-11-18T23:05:16;9.20;99.90
25302;DHT22;13243;50.888;4.724;2022-11-18T23:10:18;9.20;99.90
25302;DHT22;13243;50.888;4.724;2022-11-18T23:15:19;9.10;99.90
25302;DHT22;13243;50.888;4.724;2022-11-18T23:20:21;9.10;99.90
25302;DHT22;13243;50.888;4.724;2022-11-18T23:25:23;9.10;99.90
25302;DHT22;13243;50.888;4.724;2022-11-18T23:30:25;9.10;99.90
25302;DHT22;13243;50.888;4.724;2022-11-18T23:35:27;9.10;99.90
25302;DHT22;13243;50.888;4.724;2022-11-18T23:40:28;9.10;99.90
25302;DHT22;13243;50.888;4.724;2022-11-18T23:45:31;9.10;99.90
25302;DHT22;13243;50.888;4.724;2022-11-18T23:50:33;9.10;99.90
25302;DHT22;13243;50.888;4.724;2022-11-18T23:55:40;9.10;99.90
